createdAt,value
2018-06-21T00:01:35.799Z,15.70
2018-06-21T00:04:03.339Z,15.70
2018-06-21T00:06:30.875Z,15.70
2018-06-21T00:08:58.408Z,15.70
2018-06-21T00:11:25.916Z,15.50
2018-06-21T00:13:53.454Z,15.60
2018-06-21T00:16:20.955Z,15.50
2018-06-21T00:18:48.497Z,15.60
2018-06-21T00:21:16.004Z,15.60
2018-06-21T00:23:43.524Z,15.60
2018-06-21T00:26:11.053Z,15.50
2018-06-21T00:28:38.592Z,15.30
2018-06-21T00:31:06.108Z,15.20
2018-06-21T00:33:33.763Z,15.20
2018-06-21T00:36:01.278Z,15.20
2018-06-21T00:38:28.818Z,15.30
2018-06-21T00:40:56.380Z,15.40
2018-06-21T00:43:23.941Z,15.30
2018-06-21T00:45:51.465Z,15.30
2018-06-21T00:48:18.994Z,15.40
2018-06-21T00:50:46.550Z,15.30
2018-06-21T00:53:14.056Z,15.30
2018-06-21T00:55:53.019Z,15.40
2018-06-21T00:58:20.536Z,15.40
2018-06-21T01:00:48.065Z,15.30
2018-06-21T01:03:15.573Z,15.30
2018-06-21T01:05:43.109Z,15.30
2018-06-21T01:10:38.166Z,15.30
2018-06-21T01:13:05.672Z,15.20
2018-06-21T01:15:33.204Z,15.20
2018-06-21T01:18:00.709Z,15.20
2018-06-21T01:20:28.252Z,15.20
2018-06-21T01:22:55.782Z,15.20
2018-06-21T01:25:23.334Z,15.10
2018-06-21T01:27:50.865Z,15.00
2018-06-21T01:30:18.416Z,15.00
2018-06-21T01:32:45.917Z,14.80
2018-06-21T01:35:13.446Z,14.80
2018-06-21T01:37:40.961Z,14.70
2018-06-21T01:40:08.532Z,14.80
2018-06-21T01:42:36.070Z,14.80
2018-06-21T01:45:03.812Z,14.90
2018-06-21T01:47:31.325Z,14.90
2018-06-21T01:49:58.851Z,14.90
2018-06-21T01:52:26.366Z,14.80
2018-06-21T01:54:53.901Z,14.80
2018-06-21T01:57:21.405Z,14.80
2018-06-21T01:59:48.936Z,14.70
2018-06-21T02:02:16.437Z,14.60
2018-06-21T02:04:43.969Z,14.50
2018-06-21T02:07:11.485Z,14.50
2018-06-21T02:09:39.016Z,14.50
2018-06-21T02:12:06.540Z,14.50
2018-06-21T02:14:34.069Z,14.60
2018-06-21T02:17:01.605Z,14.60
2018-06-21T02:19:29.113Z,14.60
2018-06-21T02:21:57.043Z,14.50
2018-06-21T02:24:24.560Z,14.60
2018-06-21T02:26:52.116Z,14.50
2018-06-21T02:29:19.615Z,14.40
2018-06-21T02:31:47.149Z,14.50
2018-06-21T02:34:14.697Z,14.50
2018-06-21T02:36:42.218Z,14.50
2018-06-21T02:39:09.890Z,14.50
2018-06-21T02:41:37.677Z,14.50
2018-06-21T02:44:05.277Z,14.40
2018-06-21T02:46:32.841Z,14.40
2018-06-21T02:49:00.345Z,14.40
2018-06-21T02:51:27.888Z,14.30
2018-06-21T02:56:22.860Z,14.40
2018-06-21T02:58:50.368Z,14.50
2018-06-21T03:01:17.889Z,14.60
2018-06-21T03:03:45.441Z,14.60
2018-06-21T03:06:13.041Z,14.50
2018-06-21T03:08:40.561Z,14.50
2018-06-21T03:11:08.092Z,14.50
2018-06-21T03:13:35.609Z,14.50
2018-06-21T03:16:03.291Z,14.50
2018-06-21T03:18:30.796Z,14.50
2018-06-21T03:20:58.329Z,14.60
2018-06-21T03:23:26.861Z,14.60
2018-06-21T03:25:54.417Z,14.70
2018-06-21T03:28:21.934Z,14.70
2018-06-21T03:30:49.653Z,14.70
2018-06-21T03:33:17.216Z,14.80
2018-06-21T03:35:44.773Z,14.80
2018-06-21T03:38:12.280Z,14.80
2018-06-21T03:45:34.760Z,14.70
2018-06-21T03:48:02.272Z,14.60
2018-06-21T03:50:29.844Z,14.70
2018-06-21T03:52:57.372Z,14.70
2018-06-21T03:55:24.897Z,14.80
2018-06-21T03:57:52.419Z,14.80
2018-06-21T04:00:19.925Z,14.80
2018-06-21T04:02:47.460Z,14.80
2018-06-21T04:05:15.025Z,14.80
2018-06-21T04:07:42.519Z,14.80
2018-06-21T04:10:10.025Z,14.70
2018-06-21T04:12:37.557Z,14.70
2018-06-21T04:15:05.097Z,14.60
2018-06-21T04:17:32.657Z,14.70
2018-06-21T04:20:00.150Z,14.70
2018-06-21T04:22:27.691Z,14.80
2018-06-21T04:24:55.204Z,14.80
2018-06-21T04:27:22.800Z,14.80
2018-06-21T04:29:50.408Z,14.90
2018-06-21T04:32:17.981Z,14.90
2018-06-21T04:34:45.584Z,15.00
2018-06-21T04:37:13.116Z,15.10
2018-06-21T04:42:08.184Z,15.10
2018-06-21T04:44:35.709Z,15.20
2018-06-21T04:47:03.262Z,15.30
2018-06-21T04:49:30.764Z,15.30
2018-06-21T04:51:58.294Z,15.40
2018-06-21T04:54:25.841Z,15.40
2018-06-21T04:56:53.392Z,15.50
2018-06-21T04:59:20.889Z,15.60
2018-06-21T05:01:48.420Z,15.60
2018-06-21T05:04:15.920Z,15.70
2018-06-21T05:06:43.456Z,15.80
2018-06-21T05:09:12.020Z,16.10
2018-06-21T05:11:44.535Z,16.40
2018-06-21T05:14:12.049Z,16.50
2018-06-21T05:16:46.498Z,16.60
2018-06-21T05:19:14.045Z,16.80
2018-06-21T05:21:44.508Z,17.00
2018-06-21T05:24:16.316Z,17.20
2018-06-21T05:26:48.489Z,17.20
2018-06-21T05:29:16.069Z,17.40
2018-06-21T05:31:51.586Z,17.50
2018-06-21T05:34:24.095Z,17.80
2018-06-21T05:36:54.014Z,18.20
2018-06-21T05:39:22.908Z,18.20
2018-06-21T05:42:17.562Z,18.30
2018-06-21T05:44:59.718Z,18.40
2018-06-21T05:52:42.550Z,18.50
2018-06-21T05:55:36.786Z,18.60
2018-06-21T05:58:57.172Z,18.70
2018-06-21T06:04:08.422Z,18.70
2018-06-21T06:06:42.302Z,18.80
2018-06-21T06:09:11.144Z,19.00
2018-06-21T06:11:38.670Z,19.10
2018-06-21T06:14:06.835Z,19.10
2018-06-21T06:16:34.284Z,19.20
2018-06-21T06:19:01.862Z,19.20
2018-06-21T06:21:29.525Z,19.30
2018-06-21T06:23:57.133Z,19.40
2018-06-21T06:26:25.069Z,19.60
2018-06-21T06:28:52.693Z,19.70
2018-06-21T06:31:20.224Z,19.70
2018-06-21T06:33:47.797Z,19.70
2018-06-21T06:36:15.316Z,19.90
2018-06-21T06:38:42.844Z,20.10
2018-06-21T06:41:10.407Z,20.30
2018-06-21T06:43:38.000Z,20.30
2018-06-21T06:46:05.517Z,20.30
2018-06-21T06:48:33.080Z,20.40
2018-06-21T06:51:00.608Z,20.40
2018-06-21T06:53:28.185Z,20.40
2018-06-21T06:55:55.685Z,20.50
2018-06-21T06:58:23.256Z,20.60
2018-06-21T07:00:50.813Z,20.60
2018-06-21T07:03:18.388Z,20.40
2018-06-21T07:05:45.925Z,20.50
2018-06-21T07:08:14.471Z,20.70
2018-06-21T07:10:41.883Z,20.80
2018-06-21T07:13:09.468Z,20.80
2018-06-21T07:15:37.016Z,20.80
2018-06-21T07:18:04.780Z,21.10
2018-06-21T07:20:32.379Z,21.00
2018-06-21T07:22:59.873Z,21.00
2018-06-21T07:25:27.469Z,21.00
2018-06-21T07:27:54.993Z,21.10
2018-06-21T07:30:22.526Z,21.30
2018-06-21T07:32:50.037Z,21.40
2018-06-21T07:35:17.572Z,21.30
2018-06-21T07:37:45.950Z,21.20
2018-06-21T07:40:13.525Z,21.30
2018-06-21T07:42:41.072Z,21.50
2018-06-21T07:45:08.725Z,21.70
2018-06-21T07:47:36.585Z,21.80
2018-06-21T07:50:04.190Z,22.00
2018-06-21T07:52:31.709Z,22.00
2018-06-21T07:54:59.266Z,22.10
2018-06-21T07:57:26.803Z,22.20
2018-06-21T07:59:54.355Z,22.10
2018-06-21T08:04:49.684Z,22.10
2018-06-21T08:07:17.215Z,22.00
2018-06-21T08:09:44.844Z,22.20
2018-06-21T08:12:12.656Z,22.40
2018-06-21T08:14:40.308Z,22.50
2018-06-21T08:17:07.823Z,22.50
2018-06-21T08:19:35.372Z,22.60
2018-06-21T08:22:02.944Z,22.60
2018-06-21T08:24:30.488Z,22.90
2018-06-21T08:26:58.005Z,23.10
2018-06-21T08:29:25.689Z,23.30
2018-06-21T08:31:53.249Z,23.30
2018-06-21T08:36:48.267Z,23.30
2018-06-21T08:39:15.800Z,23.30
2018-06-21T08:41:43.316Z,23.30
2018-06-21T08:44:10.968Z,23.40
2018-06-21T08:46:38.538Z,23.60
2018-06-21T08:49:06.169Z,23.70
2018-06-21T08:51:34.864Z,23.20
2018-06-21T08:54:02.413Z,23.70
2018-06-21T08:56:30.492Z,24.00
2018-06-21T08:58:58.158Z,24.10
2018-06-21T09:01:26.304Z,23.90
2018-06-21T09:03:53.990Z,23.90
2018-06-21T09:06:21.545Z,23.80
2018-06-21T09:08:49.109Z,23.90
2018-06-21T09:11:16.740Z,23.90
2018-06-21T09:13:49.589Z,23.70
2018-06-21T09:16:19.344Z,23.40
2018-06-21T09:18:46.836Z,23.20
2018-06-21T09:21:14.439Z,23.70
2018-06-21T09:23:41.907Z,23.70
2018-06-21T09:26:10.213Z,23.50
2018-06-21T09:28:37.725Z,23.20
2018-06-21T09:31:05.317Z,23.20
2018-06-21T09:33:33.797Z,23.70
2018-06-21T09:36:01.317Z,23.90
2018-06-21T09:38:34.484Z,23.80
2018-06-21T09:43:50.297Z,24.10
2018-06-21T09:46:14.826Z,24.30
2018-06-21T09:48:48.221Z,24.10
2018-06-21T09:51:15.803Z,24.00
2018-06-21T09:53:43.446Z,23.90
2018-06-21T09:56:11.121Z,23.70
2018-06-21T09:58:39.281Z,23.70
2018-06-21T10:01:06.864Z,23.60
2018-06-21T10:03:34.434Z,23.70
2018-06-21T10:06:02.040Z,24.00
2018-06-21T10:08:29.624Z,24.10
2018-06-21T10:10:57.381Z,24.40
2018-06-21T10:13:26.869Z,23.90
2018-06-21T10:15:54.644Z,23.90
2018-06-21T10:18:22.317Z,23.40
2018-06-21T10:20:50.072Z,23.40
2018-06-21T10:23:17.578Z,23.00
2018-06-21T10:25:45.148Z,22.70
2018-06-21T10:28:12.665Z,22.70
2018-06-21T10:30:40.193Z,22.50
2018-06-21T10:33:07.728Z,22.40
2018-06-21T10:35:35.340Z,22.50
2018-06-21T10:38:02.913Z,22.10
2018-06-21T10:40:30.856Z,21.80
2018-06-21T10:42:58.582Z,21.50
2018-06-21T10:45:26.283Z,21.60
2018-06-21T10:47:53.940Z,21.80
2018-06-21T10:50:21.466Z,21.30
2018-06-21T10:52:49.084Z,21.00
2018-06-21T10:55:16.871Z,20.70
2018-06-21T10:57:44.547Z,20.40
2018-06-21T11:00:12.748Z,20.50
2018-06-21T11:02:40.649Z,20.50
2018-06-21T11:05:08.635Z,20.40
2018-06-21T11:07:36.526Z,20.30
2018-06-21T11:10:04.108Z,20.20
2018-06-21T11:12:31.752Z,20.20
2018-06-21T11:14:59.285Z,20.20
2018-06-21T11:17:26.926Z,20.30
2018-06-21T11:19:55.379Z,20.50
2018-06-21T11:22:23.655Z,20.40
2018-06-21T11:24:52.321Z,20.40
2018-06-21T11:27:20.139Z,20.90
2018-06-21T11:29:47.825Z,21.00
2018-06-21T11:32:15.381Z,21.20
2018-06-21T11:34:42.960Z,22.30
2018-06-21T11:39:39.072Z,22.00
2018-06-21T11:42:07.676Z,22.60
2018-06-21T11:44:35.262Z,22.40
2018-06-21T11:47:02.945Z,22.60
2018-06-21T11:49:30.492Z,23.20
2018-06-21T11:51:58.340Z,23.50
2018-06-21T11:54:26.622Z,23.30
2018-06-21T11:56:54.313Z,23.70
2018-06-21T11:59:22.000Z,24.50
2018-06-21T12:01:49.695Z,24.20
2018-06-21T12:04:17.597Z,23.40
2018-06-21T12:06:45.215Z,22.70
2018-06-21T12:09:12.804Z,22.90
2018-06-21T12:11:40.764Z,23.00
2018-06-21T12:14:08.537Z,23.30
2018-06-21T12:16:37.156Z,24.20
2018-06-21T12:19:05.108Z,23.90
2018-06-21T12:21:33.808Z,23.80
2018-06-21T12:24:01.617Z,23.90
2018-06-21T12:26:29.389Z,24.60
2018-06-21T12:28:57.613Z,24.60
2018-06-21T12:31:25.420Z,24.30
2018-06-21T12:33:52.991Z,24.10
2018-06-21T12:36:20.572Z,24.40
2018-06-21T12:38:48.288Z,24.80
2018-06-21T12:41:15.888Z,25.70
2018-06-21T12:44:08.102Z,24.60
2018-06-21T12:46:57.865Z,24.80
2018-06-21T12:49:26.287Z,24.00
2018-06-21T12:51:53.825Z,22.80
2018-06-21T12:54:21.392Z,22.70
2018-06-21T12:56:50.227Z,22.80
2018-06-21T12:59:18.110Z,22.60
2018-06-21T13:01:46.528Z,22.60
2018-06-21T13:04:14.140Z,23.50
2018-06-21T13:06:41.906Z,24.00
2018-06-21T13:09:20.867Z,23.70
2018-06-21T13:12:28.457Z,23.80
2018-06-21T13:14:56.398Z,23.70
2018-06-21T13:17:24.560Z,23.70
2018-06-21T13:19:52.099Z,24.50
2018-06-21T13:22:19.724Z,24.50
2018-06-21T13:24:47.390Z,23.90
2018-06-21T13:28:14.317Z,23.90
2018-06-21T13:31:55.789Z,24.40
2018-06-21T13:42:16.719Z,24.80
2018-06-21T13:44:44.650Z,24.30
2018-06-21T13:47:12.417Z,24.10
2018-06-21T13:49:40.051Z,23.80
2018-06-21T13:52:07.808Z,24.20
2018-06-21T13:59:41.128Z,23.60
2018-06-21T14:02:08.712Z,24.40
2018-06-21T14:04:36.504Z,22.90
2018-06-21T14:07:04.321Z,23.10
2018-06-21T14:09:31.917Z,23.70
2018-06-21T14:11:59.536Z,23.70
2018-06-21T14:14:27.543Z,23.40
2018-06-21T14:16:55.154Z,22.80
2018-06-21T14:19:23.092Z,23.10
2018-06-21T14:21:50.685Z,23.10
2018-06-21T14:24:18.297Z,23.20
2018-06-21T14:26:46.124Z,23.20
2018-06-21T14:29:13.840Z,22.80
2018-06-21T14:31:42.714Z,22.10
2018-06-21T14:34:10.397Z,21.30
2018-06-21T14:36:37.976Z,21.30
2018-06-21T14:39:07.081Z,22.20
2018-06-21T14:41:34.861Z,22.90
2018-06-21T14:44:02.537Z,23.00
2018-06-21T14:46:30.149Z,23.50
2018-06-21T14:48:57.856Z,23.50
2018-06-21T14:51:25.440Z,22.90
2018-06-21T14:53:53.220Z,22.70
2018-06-21T14:56:21.173Z,22.80
2018-06-21T14:58:48.790Z,22.30
2018-06-21T15:03:44.579Z,21.90
2018-06-21T15:06:12.172Z,21.90
2018-06-21T15:08:40.407Z,21.80
2018-06-21T15:11:08.066Z,21.90
2018-06-21T15:13:35.699Z,21.70
2018-06-21T15:16:03.383Z,21.10
2018-06-21T15:18:31.228Z,21.00
2018-06-21T15:20:58.788Z,20.90
2018-06-21T15:23:26.342Z,20.90
2018-06-21T15:25:53.906Z,21.20
2018-06-21T15:28:21.424Z,21.20
2018-06-21T15:30:53.601Z,21.00
2018-06-21T15:33:23.294Z,21.10
2018-06-21T15:35:53.208Z,20.90
2018-06-21T15:38:22.506Z,20.80
2018-06-21T15:40:54.444Z,20.70
2018-06-21T15:43:25.311Z,20.40
2018-06-21T15:45:52.932Z,20.60
2018-06-21T15:48:20.449Z,20.10
2018-06-21T15:50:48.013Z,20.50
2018-06-21T15:53:15.575Z,20.10
2018-06-21T15:55:43.137Z,20.10
2018-06-21T15:58:10.697Z,20.40
2018-06-21T16:00:38.313Z,20.20
2018-06-21T16:03:05.891Z,20.10
2018-06-21T16:05:33.423Z,19.90
2018-06-21T16:08:01.666Z,20.00
2018-06-21T16:10:29.265Z,20.20
2018-06-21T16:12:56.795Z,20.00
2018-06-21T16:15:24.551Z,20.00
2018-06-21T16:17:52.559Z,19.80
2018-06-21T16:20:20.269Z,20.00
2018-06-21T16:22:48.241Z,19.90
2018-06-21T16:25:16.072Z,19.90
2018-06-21T16:27:44.269Z,19.70
2018-06-21T16:30:11.988Z,19.70
2018-06-21T16:32:39.730Z,19.40
2018-06-21T16:35:07.421Z,19.20
2018-06-21T16:37:35.161Z,19.20
2018-06-21T16:40:03.058Z,19.20
2018-06-21T16:42:30.709Z,19.10
2018-06-21T16:44:58.285Z,19.20
2018-06-21T16:47:26.045Z,19.20
2018-06-21T16:49:53.723Z,19.20
2018-06-21T16:52:21.520Z,19.00
2018-06-21T16:54:49.301Z,19.00
2018-06-21T16:57:17.106Z,18.80
2018-06-21T16:59:44.878Z,18.90
2018-06-21T17:02:13.329Z,18.80
2018-06-21T17:04:41.189Z,18.80
2018-06-21T17:07:09.288Z,18.90
2018-06-21T17:09:37.263Z,18.90
2018-06-21T17:12:05.051Z,18.60
2018-06-21T17:14:33.573Z,18.70
2018-06-21T17:17:02.356Z,18.70
2018-06-21T17:19:30.088Z,18.50
2018-06-21T17:21:57.872Z,18.50
2018-06-21T17:24:26.302Z,18.40
2018-06-21T17:26:54.060Z,18.40
2018-06-21T17:29:22.025Z,18.40
2018-06-21T17:31:49.580Z,18.10
2018-06-21T17:34:17.960Z,17.80
2018-06-21T17:36:45.574Z,17.70
2018-06-21T17:39:13.085Z,17.90
2018-06-21T17:41:40.632Z,17.80
2018-06-21T17:44:08.202Z,17.70
2018-06-21T17:46:35.776Z,17.60
2018-06-21T17:49:03.321Z,17.60
2018-06-21T17:51:31.480Z,17.50
2018-06-21T17:53:59.081Z,17.40
2018-06-21T17:56:26.768Z,17.30
2018-06-21T17:58:54.755Z,17.30
2018-06-21T18:01:22.569Z,17.20
2018-06-21T18:03:50.424Z,17.10
2018-06-21T18:06:18.322Z,17.00
2018-06-21T18:08:46.270Z,16.90
2018-06-21T18:11:14.273Z,16.90
2018-06-21T18:13:41.957Z,16.90
2018-06-21T18:16:09.895Z,16.70
2018-06-21T18:18:37.653Z,16.70
2018-06-21T18:21:05.863Z,16.60
2018-06-21T18:23:33.561Z,16.50
2018-06-21T18:26:01.347Z,16.40
2018-06-21T18:28:29.070Z,16.30
2018-06-21T18:30:56.720Z,16.20
2018-06-21T18:33:24.443Z,16.10
2018-06-21T18:35:52.448Z,15.90
2018-06-21T18:38:20.259Z,15.90
2018-06-21T18:40:51.076Z,15.80
2018-06-21T18:45:48.943Z,15.60
2018-06-21T18:48:17.160Z,15.50
2018-06-21T18:50:45.252Z,15.40
2018-06-21T18:53:14.057Z,15.40
2018-06-21T18:55:42.208Z,15.30
2018-06-21T18:58:28.237Z,15.20
2018-06-21T19:00:55.856Z,15.10
2018-06-21T19:03:23.743Z,15.10
2018-06-21T19:05:52.506Z,15.10
2018-06-21T19:08:25.920Z,15.00
2018-06-21T19:10:59.461Z,14.90
2018-06-21T19:13:27.381Z,14.80
2018-06-21T19:15:55.077Z,14.80
2018-06-21T19:18:22.826Z,14.70
2018-06-21T19:20:50.969Z,14.60
2018-06-21T19:23:18.506Z,14.60
2018-06-21T19:25:46.141Z,14.50
2018-06-21T19:28:13.692Z,14.40
2018-06-21T19:30:41.265Z,14.30
2018-06-21T19:33:08.825Z,14.30
2018-06-21T19:35:36.589Z,14.20
2018-06-21T19:38:05.112Z,14.10
2018-06-21T19:40:32.668Z,14.00
2018-06-21T19:43:00.238Z,14.00
2018-06-21T19:45:27.836Z,13.90
2018-06-21T19:47:55.577Z,13.80
2018-06-21T19:50:23.362Z,13.80
2018-06-21T19:52:50.894Z,13.70
2018-06-21T19:55:18.559Z,13.60
2018-06-21T19:57:46.097Z,13.60
2018-06-21T20:00:13.988Z,13.50
2018-06-21T20:02:47.133Z,13.50
2018-06-21T20:05:14.705Z,13.40
2018-06-21T20:07:42.220Z,13.40
2018-06-21T20:10:10.381Z,13.30
2018-06-21T20:12:37.917Z,13.20
2018-06-21T20:15:05.565Z,13.20
2018-06-21T20:17:33.089Z,13.00
2018-06-21T20:20:06.349Z,13.00
2018-06-21T20:22:33.876Z,13.00
2018-06-21T20:25:01.417Z,12.90
2018-06-21T20:27:29.297Z,12.90
2018-06-21T20:29:56.837Z,12.80
2018-06-21T20:32:24.372Z,12.80
2018-06-21T20:34:51.914Z,12.70
2018-06-21T20:37:19.444Z,12.70
2018-06-21T20:39:46.947Z,12.70
2018-06-21T20:42:14.497Z,12.60
2018-06-21T20:44:42.012Z,12.50
2018-06-21T20:49:37.010Z,12.40
2018-06-21T20:52:07.242Z,12.40
2018-06-21T20:54:35.760Z,12.30
2018-06-21T20:57:03.778Z,12.20
2018-06-21T20:59:31.303Z,12.20
2018-06-21T21:01:58.842Z,12.10
2018-06-21T21:04:28.602Z,12.00
2018-06-21T21:06:56.138Z,12.00
2018-06-21T21:09:23.672Z,11.90
2018-06-21T21:11:51.216Z,11.70
2018-06-21T21:14:18.720Z,11.70
2018-06-21T21:16:46.274Z,11.70
2018-06-21T21:19:13.789Z,11.70
2018-06-21T21:21:41.303Z,11.70
2018-06-21T21:24:08.838Z,11.60
2018-06-21T21:26:36.385Z,11.60
2018-06-21T21:29:03.928Z,11.70
2018-06-21T21:31:31.459Z,11.50
2018-06-21T21:33:59.019Z,11.60
2018-06-21T21:36:26.540Z,11.50
2018-06-21T21:38:54.091Z,11.50
2018-06-21T21:41:21.744Z,11.50
2018-06-21T21:43:49.287Z,11.40
2018-06-21T21:46:16.800Z,11.40
2018-06-21T21:48:44.328Z,11.40
2018-06-21T21:51:11.880Z,11.30
2018-06-21T21:53:39.855Z,11.30
2018-06-21T21:56:07.364Z,11.20
2018-06-21T21:58:34.897Z,11.10
2018-06-21T22:03:40.641Z,11.00
2018-06-21T22:06:08.166Z,11.00
2018-06-21T22:08:35.704Z,10.90
2018-06-21T22:11:03.345Z,10.70
2018-06-21T22:13:30.877Z,10.70
2018-06-21T22:15:58.392Z,10.70
2018-06-21T22:18:25.928Z,10.60
2018-06-21T22:20:53.792Z,10.60
2018-06-21T22:23:21.332Z,10.60
2018-06-21T22:25:48.880Z,10.50
2018-06-21T22:28:16.410Z,10.40
2018-06-21T22:30:43.947Z,10.30
2018-06-21T22:33:11.461Z,10.20
2018-06-21T22:35:38.996Z,10.10
2018-06-21T22:38:06.550Z,10.10
2018-06-21T22:40:34.101Z,10.10
2018-06-21T22:43:01.627Z,10.30
2018-06-21T22:45:29.168Z,10.20
2018-06-21T22:47:56.690Z,10.10
2018-06-21T22:50:24.238Z,10.00
2018-06-21T22:52:51.764Z,10.00
2018-06-21T22:55:19.363Z,9.90
2018-06-21T22:57:46.893Z,10.00
2018-06-21T23:00:14.657Z,9.90
2018-06-21T23:02:42.173Z,10.00
2018-06-21T23:05:09.720Z,10.10
2018-06-21T23:07:37.259Z,10.00
2018-06-21T23:10:04.821Z,9.80
2018-06-21T23:12:32.343Z,9.90
2018-06-21T23:17:28.285Z,9.70
2018-06-21T23:19:55.817Z,9.70
2018-06-21T23:22:23.345Z,9.70
2018-06-21T23:24:50.876Z,9.60
2018-06-21T23:27:18.420Z,9.70
2018-06-21T23:29:45.954Z,9.70
2018-06-21T23:32:13.496Z,9.70
2018-06-21T23:34:41.040Z,9.60
2018-06-21T23:37:08.562Z,9.50
2018-06-21T23:42:18.544Z,9.50
2018-06-21T23:44:46.104Z,9.60
2018-06-21T23:47:13.621Z,9.70
2018-06-21T23:49:41.178Z,9.70
2018-06-21T23:52:08.693Z,9.80
2018-06-21T23:54:36.244Z,9.80
2018-06-21T23:57:03.840Z,9.80
2018-06-21T23:59:31.372Z,9.90
